sensor_id;sensor_type;location;lat;lon;timestamp;temperature;humidity
12015;DHT22;6066;48.138;16.402;2023-03-01T00:02:15;-2.00;99.90
12015;DHT22;6066;48.138;16.402;2023-03-01T00:04:42;-2.00;99.90
12015;DHT22;6066;48.138;16.402;2023-03-01T00:07:08;-2.00;99.90
12015;DHT22;6066;48.138;16.402;2023-03-01T00:09:35;-2.00;99.90
12015;DHT22;6066;48.138;16.402;2023-03-01T00:12:02;-2.00;99.90
12015;DHT22;6066;48.138;16.402;2023-03-01T00:14:29;-2.10;99.90
12015;DHT22;6066;48.138;16.402;2023-03-01T00:16:55;-2.00;99.90
12015;DHT22;6066;48.138;16.402;2023-03-01T00:19:23;-2.10;99.90
12015;DHT22;6066;48.138;16.402;2023-03-01T00:21:50;-2.10;99.90
12015;DHT22;6066;48.138;16.402;2023-03-01T00:24:17;-2.10;99.90
12015;DHT22;6066;48.138;16.402;2023-03-01T00:26:43;-2.10;99.90
12015;DHT22;6066;48.138;16.402;2023-03-01T00:29:10;-2.20;99.90
12015;DHT22;6066;48.138;16.402;2023-03-01T00:31:37;-2.20;99.90
12015;DHT22;6066;48.138;16.402;2023-03-01T00:34:04;-2.20;99.90
12015;DHT22;6066;48.138;16.402;2023-03-01T00:36:33;-2.20;99.90
12015;DHT22;6066;48.138;16.402;2023-03-01T00:39:01;-2.20;99.90
12015;DHT22;6066;48.138;16.402;2023-03-01T00:41:30;-2.20;99.90
12015;DHT22;6066;48.138;16.402;2023-03-01T00:43:56;-2.20;99.90
12015;DHT22;6066;48.138;16.402;2023-03-01T00:46:24;-2.20;99.90
12015;DHT22;6066;48.138;16.402;2023-03-01T00:48:51;-2.20;99.90
12015;DHT22;6066;48.138;16.402;2023-03-01T00:51:18;-2.30;99.90
12015;DHT22;6066;48.138;16.402;2023-03-01T00:53:49;-2.30;99.90
12015;DHT22;6066;48.138;16.402;2023-03-01T00:56:16;-2.30;99.90
12015;DHT22;6066;48.138;16.402;2023-03-01T00:58:42;-2.30;99.90
12015;DHT22;6066;48.138;16.402;2023-03-01T01:01:10;-2.20;99.90
12015;DHT22;6066;48.138;16.402;2023-03-01T01:03:42;-2.20;99.90
12015;DHT22;6066;48.138;16.402;2023-03-01T01:06:12;-2.20;99.90
12015;DHT22;6066;48.138;16.402;2023-03-01T01:08:39;-2.30;99.90
12015;DHT22;6066;48.138;16.402;2023-03-01T01:11:09;-2.20;99.90
12015;DHT22;6066;48.138;16.402;2023-03-01T01:13:36;-2.20;99.90
12015;DHT22;6066;48.138;16.402;2023-03-01T01:16:03;-2.20;99.90
12015;DHT22;6066;48.138;16.402;2023-03-01T01:18:30;-2.20;99.90
12015;DHT22;6066;48.138;16.402;2023-03-01T01:20:56;-2.20;99.90
12015;DHT22;6066;48.138;16.402;2023-03-01T01:23:23;-2.10;99.90
12015;DHT22;6066;48.138;16.402;2023-03-01T01:25:50;-2.00;99.90
12015;DHT22;6066;48.138;16.402;2023-03-01T01:28:18;-1.90;99.90
12015;DHT22;6066;48.138;16.402;2023-03-01T01:30:44;-1.80;99.90
12015;DHT22;6066;48.138;16.402;2023-03-01T01:33:11;-1.70;99.90
12015;DHT22;6066;48.138;16.402;2023-03-01T01:35:38;-1.60;99.90
12015;DHT22;6066;48.138;16.402;2023-03-01T01:38:04;-1.50;99.90
12015;DHT22;6066;48.138;16.402;2023-03-01T01:40:31;-1.30;99.90
12015;DHT22;6066;48.138;16.402;2023-03-01T01:42:58;-1.20;99.90
12015;DHT22;6066;48.138;16.402;2023-03-01T01:45:28;-1.10;99.90
12015;DHT22;6066;48.138;16.402;2023-03-01T01:47:57;-1.10;99.90
12015;DHT22;6066;48.138;16.402;2023-03-01T01:50:25;-1.00;99.90
12015;DHT22;6066;48.138;16.402;2023-03-01T01:52:52;-0.90;99.90
12015;DHT22;6066;48.138;16.402;2023-03-01T01:55:20;-0.90;99.90
12015;DHT22;6066;48.138;16.402;2023-03-01T01:57:49;-0.90;99.90
12015;DHT22;6066;48.138;16.402;2023-03-01T02:00:17;-0.90;99.90
12015;DHT22;6066;48.138;16.402;2023-03-01T02:02:46;-0.90;99.90
12015;DHT22;6066;48.138;16.402;2023-03-01T02:05:14;-0.90;99.90
12015;DHT22;6066;48.138;16.402;2023-03-01T02:07:43;-0.80;99.90
12015;DHT22;6066;48.138;16.402;2023-03-01T02:10:10;-0.80;99.90
12015;DHT22;6066;48.138;16.402;2023-03-01T02:12:37;-0.80;99.90
12015;DHT22;6066;48.138;16.402;2023-03-01T02:15:05;-0.70;99.90
12015;DHT22;6066;48.138;16.402;2023-03-01T02:17:31;-0.70;99.90
12015;DHT22;6066;48.138;16.402;2023-03-01T02:20:03;-0.60;99.90
12015;DHT22;6066;48.138;16.402;2023-03-01T02:22:32;-0.50;99.90
12015;DHT22;6066;48.138;16.402;2023-03-01T02:25:12;-0.50;99.90
12015;DHT22;6066;48.138;16.402;2023-03-01T02:27:45;-0.40;99.90
12015;DHT22;6066;48.138;16.402;2023-03-01T02:30:16;-0.40;99.90
12015;DHT22;6066;48.138;16.402;2023-03-01T02:32:44;-0.30;99.90
12015;DHT22;6066;48.138;16.402;2023-03-01T02:35:10;-0.30;99.90
12015;DHT22;6066;48.138;16.402;2023-03-01T02:37:38;-0.40;99.90
12015;DHT22;6066;48.138;16.402;2023-03-01T02:40:06;-0.40;99.90
12015;DHT22;6066;48.138;16.402;2023-03-01T02:42:41;-0.40;99.90
12015;DHT22;6066;48.138;16.402;2023-03-01T02:45:10;-0.40;99.90
12015;DHT22;6066;48.138;16.402;2023-03-01T02:47:38;-0.40;99.90
12015;DHT22;6066;48.138;16.402;2023-03-01T02:50:09;-0.40;99.90
12015;DHT22;6066;48.138;16.402;2023-03-01T02:52:40;-0.30;99.90
12015;DHT22;6066;48.138;16.402;2023-03-01T02:55:09;-0.30;99.90
12015;DHT22;6066;48.138;16.402;2023-03-01T02:57:37;-0.30;99.90
12015;DHT22;6066;48.138;16.402;2023-03-01T03:00:05;-0.20;99.90
12015;DHT22;6066;48.138;16.402;2023-03-01T03:02:33;-0.20;99.90
12015;DHT22;6066;48.138;16.402;2023-03-01T03:05:06;-0.10;99.90
12015;DHT22;6066;48.138;16.402;2023-03-01T03:07:33;-0.10;99.90
12015;DHT22;6066;48.138;16.402;2023-03-01T03:10:00;0.00;99.90
12015;DHT22;6066;48.138;16.402;2023-03-01T03:12:27;0.00;99.90
12015;DHT22;6066;48.138;16.402;2023-03-01T03:14:54;0.00;99.90
12015;DHT22;6066;48.138;16.402;2023-03-01T03:17:20;0.00;99.90
12015;DHT22;6066;48.138;16.402;2023-03-01T03:19:47;0.10;99.90
12015;DHT22;6066;48.138;16.402;2023-03-01T03:22:15;0.10;99.90
12015;DHT22;6066;48.138;16.402;2023-03-01T03:24:42;0.10;99.90
12015;DHT22;6066;48.138;16.402;2023-03-01T03:27:08;0.10;99.90
12015;DHT22;6066;48.138;16.402;2023-03-01T03:29:35;0.10;99.90
12015;DHT22;6066;48.138;16.402;2023-03-01T03:32:02;0.10;99.90
12015;DHT22;6066;48.138;16.402;2023-03-01T03:34:29;0.10;99.90
12015;DHT22;6066;48.138;16.402;2023-03-01T03:36:55;0.10;99.90
12015;DHT22;6066;48.138;16.402;2023-03-01T03:39:26;0.10;99.90
12015;DHT22;6066;48.138;16.402;2023-03-01T03:41:53;0.20;99.90
12015;DHT22;6066;48.138;16.402;2023-03-01T03:44:19;0.20;99.90
12015;DHT22;6066;48.138;16.402;2023-03-01T03:46:46;0.20;99.90
12015;DHT22;6066;48.138;16.402;2023-03-01T03:49:13;0.20;99.90
12015;DHT22;6066;48.138;16.402;2023-03-01T03:51:39;0.20;99.90
12015;DHT22;6066;48.138;16.402;2023-03-01T03:54:06;0.30;99.90
12015;DHT22;6066;48.138;16.402;2023-03-01T03:56:34;0.30;99.90
12015;DHT22;6066;48.138;16.402;2023-03-01T03:59:01;0.30;99.90
12015;DHT22;6066;48.138;16.402;2023-03-01T04:01:27;0.30;99.90
12015;DHT22;6066;48.138;16.402;2023-03-01T04:03:54;0.40;99.90
12015;DHT22;6066;48.138;16.402;2023-03-01T04:06:21;0.40;99.90
12015;DHT22;6066;48.138;16.402;2023-03-01T04:08:48;0.40;99.90
12015;DHT22;6066;48.138;16.402;2023-03-01T04:11:16;0.50;99.90
12015;DHT22;6066;48.138;16.402;2023-03-01T04:13:56;0.50;99.90
12015;DHT22;6066;48.138;16.402;2023-03-01T04:16:24;0.50;99.90
12015;DHT22;6066;48.138;16.402;2023-03-01T04:18:50;0.40;99.90
12015;DHT22;6066;48.138;16.402;2023-03-01T04:21:17;0.40;99.90
12015;DHT22;6066;48.138;16.402;2023-03-01T04:23:45;0.40;99.90
12015;DHT22;6066;48.138;16.402;2023-03-01T04:26:12;0.40;99.90
12015;DHT22;6066;48.138;16.402;2023-03-01T04:28:39;0.40;99.90
12015;DHT22;6066;48.138;16.402;2023-03-01T04:31:10;0.40;99.90
12015;DHT22;6066;48.138;16.402;2023-03-01T04:33:39;0.40;99.90
12015;DHT22;6066;48.138;16.402;2023-03-01T04:36:07;0.50;99.90
12015;DHT22;6066;48.138;16.402;2023-03-01T04:38:35;0.50;99.90
12015;DHT22;6066;48.138;16.402;2023-03-01T04:41:02;0.50;99.90
12015;DHT22;6066;48.138;16.402;2023-03-01T04:43:29;0.40;99.90
12015;DHT22;6066;48.138;16.402;2023-03-01T04:45:59;0.40;99.90
12015;DHT22;6066;48.138;16.402;2023-03-01T04:48:29;0.40;99.90
12015;DHT22;6066;48.138;16.402;2023-03-01T04:50:56;0.40;99.90
12015;DHT22;6066;48.138;16.402;2023-03-01T04:53:22;0.40;99.90
12015;DHT22;6066;48.138;16.402;2023-03-01T04:55:50;0.40;99.90
12015;DHT22;6066;48.138;16.402;2023-03-01T04:58:16;0.40;99.90
12015;DHT22;6066;48.138;16.402;2023-03-01T05:00:43;0.40;99.90
12015;DHT22;6066;48.138;16.402;2023-03-01T05:03:09;0.40;99.90
12015;DHT22;6066;48.138;16.402;2023-03-01T05:05:38;0.40;99.90
12015;DHT22;6066;48.138;16.402;2023-03-01T05:08:05;0.40;99.90
12015;DHT22;6066;48.138;16.402;2023-03-01T05:10:33;0.40;99.90
12015;DHT22;6066;48.138;16.402;2023-03-01T05:13:01;0.40;99.90
12015;DHT22;6066;48.138;16.402;2023-03-01T05:15:29;0.40;99.90
12015;DHT22;6066;48.138;16.402;2023-03-01T05:17:57;0.40;99.90
12015;DHT22;6066;48.138;16.402;2023-03-01T05:20:24;0.40;99.90
12015;DHT22;6066;48.138;16.402;2023-03-01T05:22:54;0.40;99.90
12015;DHT22;6066;48.138;16.402;2023-03-01T05:25:21;0.50;99.90
12015;DHT22;6066;48.138;16.402;2023-03-01T05:27:48;0.40;99.90
12015;DHT22;6066;48.138;16.402;2023-03-01T05:30:15;0.40;99.90
12015;DHT22;6066;48.138;16.402;2023-03-01T05:32:43;0.40;99.90
12015;DHT22;6066;48.138;16.402;2023-03-01T05:35:10;0.40;99.90
12015;DHT22;6066;48.138;16.402;2023-03-01T05:37:39;0.40;99.90
12015;DHT22;6066;48.138;16.402;2023-03-01T05:40:07;0.40;99.90
12015;DHT22;6066;48.138;16.402;2023-03-01T05:42:41;0.40;99.90
12015;DHT22;6066;48.138;16.402;2023-03-01T05:45:08;0.40;99.90
12015;DHT22;6066;48.138;16.402;2023-03-01T05:47:35;0.50;99.90
12015;DHT22;6066;48.138;16.402;2023-03-01T05:50:02;0.40;99.90
12015;DHT22;6066;48.138;16.402;2023-03-01T05:52:29;0.40;99.90
12015;DHT22;6066;48.138;16.402;2023-03-01T05:54:55;0.50;99.90
12015;DHT22;6066;48.138;16.402;2023-03-01T05:57:23;0.50;99.90
12015;DHT22;6066;48.138;16.402;2023-03-01T05:59:51;0.60;99.90
12015;DHT22;6066;48.138;16.402;2023-03-01T06:02:17;0.60;99.90
12015;DHT22;6066;48.138;16.402;2023-03-01T06:04:47;0.60;99.90
12015;DHT22;6066;48.138;16.402;2023-03-01T06:07:13;0.60;99.90
12015;DHT22;6066;48.138;16.402;2023-03-01T06:09:40;0.60;99.90
12015;DHT22;6066;48.138;16.402;2023-03-01T06:12:06;0.60;99.90
12015;DHT22;6066;48.138;16.402;2023-03-01T06:14:34;0.70;99.90
12015;DHT22;6066;48.138;16.402;2023-03-01T06:17:01;0.70;99.90
12015;DHT22;6066;48.138;16.402;2023-03-01T06:19:28;0.70;99.90
12015;DHT22;6066;48.138;16.402;2023-03-01T06:21:55;0.80;99.90
12015;DHT22;6066;48.138;16.402;2023-03-01T06:24:21;0.80;99.90
12015;DHT22;6066;48.138;16.402;2023-03-01T06:26:48;0.80;99.90
12015;DHT22;6066;48.138;16.402;2023-03-01T06:29:14;0.90;99.90
12015;DHT22;6066;48.138;16.402;2023-03-01T06:31:42;1.00;99.90
12015;DHT22;6066;48.138;16.402;2023-03-01T06:34:11;1.00;99.90
12015;DHT22;6066;48.138;16.402;2023-03-01T06:36:39;1.00;99.90
12015;DHT22;6066;48.138;16.402;2023-03-01T06:39:06;1.10;99.90
12015;DHT22;6066;48.138;16.402;2023-03-01T06:41:32;1.10;99.90
12015;DHT22;6066;48.138;16.402;2023-03-01T06:43:59;1.10;99.90
12015;DHT22;6066;48.138;16.402;2023-03-01T06:46:26;1.10;99.90
12015;DHT22;6066;48.138;16.402;2023-03-01T06:48:54;1.10;99.90
12015;DHT22;6066;48.138;16.402;2023-03-01T06:51:21;1.10;99.90
12015;DHT22;6066;48.138;16.402;2023-03-01T06:53:47;1.10;99.90
12015;DHT22;6066;48.138;16.402;2023-03-01T06:56:14;1.10;99.90
12015;DHT22;6066;48.138;16.402;2023-03-01T06:58:41;1.10;99.90
12015;DHT22;6066;48.138;16.402;2023-03-01T07:01:07;1.10;99.90
12015;DHT22;6066;48.138;16.402;2023-03-01T07:03:34;1.20;99.90
12015;DHT22;6066;48.138;16.402;2023-03-01T07:06:03;1.20;99.90
12015;DHT22;6066;48.138;16.402;2023-03-01T07:08:29;1.20;99.90
12015;DHT22;6066;48.138;16.402;2023-03-01T07:10:56;1.20;99.90
12015;DHT22;6066;48.138;16.402;2023-03-01T07:13:23;1.30;99.90
12015;DHT22;6066;48.138;16.402;2023-03-01T07:15:49;1.30;99.90
12015;DHT22;6066;48.138;16.402;2023-03-01T07:18:16;1.40;99.90
12015;DHT22;6066;48.138;16.402;2023-03-01T07:20:43;1.40;99.90
12015;DHT22;6066;48.138;16.402;2023-03-01T07:23:11;1.50;99.90
12015;DHT22;6066;48.138;16.402;2023-03-01T07:25:37;1.60;99.90
12015;DHT22;6066;48.138;16.402;2023-03-01T07:28:04;1.60;99.90
12015;DHT22;6066;48.138;16.402;2023-03-01T07:30:31;1.70;99.90
12015;DHT22;6066;48.138;16.402;2023-03-01T07:32:57;1.80;99.90
12015;DHT22;6066;48.138;16.402;2023-03-01T07:35:24;1.80;99.90
12015;DHT22;6066;48.138;16.402;2023-03-01T07:37:51;1.80;99.90
12015;DHT22;6066;48.138;16.402;2023-03-01T07:40:19;1.80;99.90
12015;DHT22;6066;48.138;16.402;2023-03-01T07:42:46;1.80;99.90
12015;DHT22;6066;48.138;16.402;2023-03-01T07:45:13;1.80;99.90
12015;DHT22;6066;48.138;16.402;2023-03-01T07:47:39;1.90;99.90
12015;DHT22;6066;48.138;16.402;2023-03-01T07:50:06;1.90;99.90
12015;DHT22;6066;48.138;16.402;2023-03-01T07:52:33;2.00;99.90
12015;DHT22;6066;48.138;16.402;2023-03-01T07:55:00;2.00;99.90
12015;DHT22;6066;48.138;16.402;2023-03-01T07:57:28;2.00;99.90
12015;DHT22;6066;48.138;16.402;2023-03-01T07:59:55;2.10;99.90
12015;DHT22;6066;48.138;16.402;2023-03-01T08:02:21;2.20;99.90
12015;DHT22;6066;48.138;16.402;2023-03-01T08:04:48;2.20;99.90
12015;DHT22;6066;48.138;16.402;2023-03-01T08:07:15;2.30;99.90
12015;DHT22;6066;48.138;16.402;2023-03-01T08:09:41;2.40;99.90
12015;DHT22;6066;48.138;16.402;2023-03-01T08:12:08;2.50;99.90
12015;DHT22;6066;48.138;16.402;2023-03-01T08:14:36;2.60;99.90
12015;DHT22;6066;48.138;16.402;2023-03-01T08:17:03;2.70;99.90
12015;DHT22;6066;48.138;16.402;2023-03-01T08:19:29;2.80;99.90
12015;DHT22;6066;48.138;16.402;2023-03-01T08:21:56;2.80;99.90
12015;DHT22;6066;48.138;16.402;2023-03-01T08:24:25;2.90;99.90
12015;DHT22;6066;48.138;16.402;2023-03-01T08:26:51;3.00;99.90
12015;DHT22;6066;48.138;16.402;2023-03-01T08:29:18;3.00;99.90
12015;DHT22;6066;48.138;16.402;2023-03-01T08:31:46;3.10;99.90
12015;DHT22;6066;48.138;16.402;2023-03-01T08:34:14;3.20;99.90
12015;DHT22;6066;48.138;16.402;2023-03-01T08:36:42;3.20;99.90
12015;DHT22;6066;48.138;16.402;2023-03-01T08:39:09;3.30;99.90
12015;DHT22;6066;48.138;16.402;2023-03-01T08:41:36;3.40;99.90
12015;DHT22;6066;48.138;16.402;2023-03-01T08:44:03;3.40;99.90
12015;DHT22;6066;48.138;16.402;2023-03-01T08:46:30;3.40;99.90
12015;DHT22;6066;48.138;16.402;2023-03-01T08:48:58;3.50;99.90
12015;DHT22;6066;48.138;16.402;2023-03-01T08:51:25;3.40;99.90
12015;DHT22;6066;48.138;16.402;2023-03-01T08:53:52;3.50;99.90
12015;DHT22;6066;48.138;16.402;2023-03-01T08:56:19;3.60;99.90
12015;DHT22;6066;48.138;16.402;2023-03-01T08:58:46;3.60;99.90
12015;DHT22;6066;48.138;16.402;2023-03-01T09:01:14;3.70;99.90
12015;DHT22;6066;48.138;16.402;2023-03-01T09:03:41;3.80;99.90
12015;DHT22;6066;48.138;16.402;2023-03-01T09:06:09;3.90;99.90
12015;DHT22;6066;48.138;16.402;2023-03-01T09:08:36;4.00;99.90
12015;DHT22;6066;48.138;16.402;2023-03-01T09:11:03;4.00;99.90
12015;DHT22;6066;48.138;16.402;2023-03-01T09:13:29;4.10;99.90
12015;DHT22;6066;48.138;16.402;2023-03-01T09:15:57;4.10;99.90
12015;DHT22;6066;48.138;16.402;2023-03-01T09:18:24;4.20;99.90
12015;DHT22;6066;48.138;16.402;2023-03-01T09:20:50;4.20;99.90
12015;DHT22;6066;48.138;16.402;2023-03-01T09:23:18;4.30;99.90
12015;DHT22;6066;48.138;16.402;2023-03-01T09:25:45;4.30;99.90
12015;DHT22;6066;48.138;16.402;2023-03-01T09:28:12;4.40;99.90
12015;DHT22;6066;48.138;16.402;2023-03-01T09:30:38;4.40;99.90
12015;DHT22;6066;48.138;16.402;2023-03-01T09:33:05;4.50;99.90
12015;DHT22;6066;48.138;16.402;2023-03-01T09:35:32;4.60;99.90
12015;DHT22;6066;48.138;16.402;2023-03-01T09:37:58;4.60;99.90
12015;DHT22;6066;48.138;16.402;2023-03-01T09:40:26;4.70;99.90
12015;DHT22;6066;48.138;16.402;2023-03-01T09:42:58;4.70;99.90
12015;DHT22;6066;48.138;16.402;2023-03-01T09:45:27;4.80;99.90
12015;DHT22;6066;48.138;16.402;2023-03-01T09:47:55;4.80;99.90
12015;DHT22;6066;48.138;16.402;2023-03-01T09:50:22;4.80;99.90
12015;DHT22;6066;48.138;16.402;2023-03-01T09:52:50;4.80;99.90
12015;DHT22;6066;48.138;16.402;2023-03-01T09:55:20;4.90;99.90
12015;DHT22;6066;48.138;16.402;2023-03-01T09:57:50;4.90;99.90
12015;DHT22;6066;48.138;16.402;2023-03-01T10:00:21;5.00;99.90
12015;DHT22;6066;48.138;16.402;2023-03-01T10:02:52;5.10;99.90
12015;DHT22;6066;48.138;16.402;2023-03-01T10:05:31;5.20;99.90
12015;DHT22;6066;48.138;16.402;2023-03-01T10:08:02;5.30;99.90
12015;DHT22;6066;48.138;16.402;2023-03-01T10:10:32;5.30;99.90
12015;DHT22;6066;48.138;16.402;2023-03-01T10:13:09;5.30;99.90
12015;DHT22;6066;48.138;16.402;2023-03-01T10:15:38;5.40;99.90
12015;DHT22;6066;48.138;16.402;2023-03-01T10:18:09;5.50;99.90
12015;DHT22;6066;48.138;16.402;2023-03-01T10:20:42;5.60;99.90
12015;DHT22;6066;48.138;16.402;2023-03-01T10:23:10;5.80;99.90
12015;DHT22;6066;48.138;16.402;2023-03-01T10:25:42;5.90;99.90
12015;DHT22;6066;48.138;16.402;2023-03-01T10:28:15;5.90;99.90
12015;DHT22;6066;48.138;16.402;2023-03-01T10:30:43;6.00;99.90
12015;DHT22;6066;48.138;16.402;2023-03-01T10:33:13;6.10;99.90
12015;DHT22;6066;48.138;16.402;2023-03-01T10:35:41;6.10;99.90
12015;DHT22;6066;48.138;16.402;2023-03-01T10:38:08;6.10;99.90
12015;DHT22;6066;48.138;16.402;2023-03-01T10:40:36;6.00;99.90
12015;DHT22;6066;48.138;16.402;2023-03-01T10:43:04;6.00;99.90
12015;DHT22;6066;48.138;16.402;2023-03-01T10:45:33;5.90;99.90
12015;DHT22;6066;48.138;16.402;2023-03-01T10:48:11;5.80;99.90
12015;DHT22;6066;48.138;16.402;2023-03-01T10:50:38;5.70;99.90
12015;DHT22;6066;48.138;16.402;2023-03-01T10:53:08;5.70;99.90
12015;DHT22;6066;48.138;16.402;2023-03-01T10:55:43;5.80;99.90
12015;DHT22;6066;48.138;16.402;2023-03-01T10:58:16;5.90;99.90
12015;DHT22;6066;48.138;16.402;2023-03-01T11:00:49;5.90;99.90
12015;DHT22;6066;48.138;16.402;2023-03-01T11:03:19;5.90;99.90
12015;DHT22;6066;48.138;16.402;2023-03-01T11:05:51;5.90;99.90
12015;DHT22;6066;48.138;16.402;2023-03-01T11:08:29;5.90;99.90
12015;DHT22;6066;48.138;16.402;2023-03-01T11:11:03;5.90;99.90
12015;DHT22;6066;48.138;16.402;2023-03-01T11:13:30;5.90;99.90
12015;DHT22;6066;48.138;16.402;2023-03-01T11:16:01;5.80;99.90
12015;DHT22;6066;48.138;16.402;2023-03-01T11:18:29;5.80;99.90
12015;DHT22;6066;48.138;16.402;2023-03-01T11:20:56;6.00;99.90
12015;DHT22;6066;48.138;16.402;2023-03-01T11:23:25;6.20;99.90
12015;DHT22;6066;48.138;16.402;2023-03-01T11:25:54;6.40;99.90
12015;DHT22;6066;48.138;16.402;2023-03-01T11:28:21;6.60;99.90
12015;DHT22;6066;48.138;16.402;2023-03-01T11:30:50;6.70;99.90
12015;DHT22;6066;48.138;16.402;2023-03-01T11:33:23;6.90;99.90
12015;DHT22;6066;48.138;16.402;2023-03-01T11:35:53;7.00;99.90
12015;DHT22;6066;48.138;16.402;2023-03-01T11:38:22;7.20;99.90
12015;DHT22;6066;48.138;16.402;2023-03-01T11:40:50;7.50;99.90
12015;DHT22;6066;48.138;16.402;2023-03-01T11:43:21;7.70;99.90
12015;DHT22;6066;48.138;16.402;2023-03-01T11:48:41;7.60;99.90
12015;DHT22;6066;48.138;16.402;2023-03-01T11:51:11;7.40;99.90
12015;DHT22;6066;48.138;16.402;2023-03-01T11:53:48;7.30;99.90
12015;DHT22;6066;48.138;16.402;2023-03-01T11:56:20;7.20;99.90
12015;DHT22;6066;48.138;16.402;2023-03-01T12:01:37;7.30;99.90
12015;DHT22;6066;48.138;16.402;2023-03-01T12:04:14;7.40;99.90
12015;DHT22;6066;48.138;16.402;2023-03-01T12:06:50;7.50;99.90
12015;DHT22;6066;48.138;16.402;2023-03-01T12:09:20;7.60;99.90
12015;DHT22;6066;48.138;16.402;2023-03-01T12:11:52;7.60;99.90
12015;DHT22;6066;48.138;16.402;2023-03-01T12:14:26;7.70;99.90
12015;DHT22;6066;48.138;16.402;2023-03-01T12:17:04;7.80;99.90
12015;DHT22;6066;48.138;16.402;2023-03-01T12:19:39;7.70;99.90
12015;DHT22;6066;48.138;16.402;2023-03-01T12:22:16;7.80;99.90
12015;DHT22;6066;48.138;16.402;2023-03-01T12:24:47;7.80;99.90
12015;DHT22;6066;48.138;16.402;2023-03-01T12:30:01;7.80;99.90
12015;DHT22;6066;48.138;16.402;2023-03-01T12:32:38;7.90;99.90
12015;DHT22;6066;48.138;16.402;2023-03-01T12:35:12;7.90;99.90
12015;DHT22;6066;48.138;16.402;2023-03-01T12:37:53;7.90;99.90
12015;DHT22;6066;48.138;16.402;2023-03-01T12:40:27;8.00;99.90
12015;DHT22;6066;48.138;16.402;2023-03-01T12:43:00;7.90;99.90
12015;DHT22;6066;48.138;16.402;2023-03-01T12:45:32;7.90;99.90
12015;DHT22;6066;48.138;16.402;2023-03-01T12:48:06;8.00;99.90
12015;DHT22;6066;48.138;16.402;2023-03-01T12:50:38;8.00;99.90
12015;DHT22;6066;48.138;16.402;2023-03-01T12:53:07;8.00;99.90
12015;DHT22;6066;48.138;16.402;2023-03-01T12:55:41;8.00;99.90
12015;DHT22;6066;48.138;16.402;2023-03-01T12:58:12;8.00;99.90
12015;DHT22;6066;48.138;16.402;2023-03-01T13:00:44;8.10;99.90
12015;DHT22;6066;48.138;16.402;2023-03-01T13:03:15;8.10;99.90
12015;DHT22;6066;48.138;16.402;2023-03-01T13:05:51;8.20;99.90
12015;DHT22;6066;48.138;16.402;2023-03-01T13:08:24;8.10;99.90
12015;DHT22;6066;48.138;16.402;2023-03-01T13:10:54;8.00;99.90
12015;DHT22;6066;48.138;16.402;2023-03-01T13:13:23;8.00;99.90
12015;DHT22;6066;48.138;16.402;2023-03-01T13:15:50;8.00;99.90
12015;DHT22;6066;48.138;16.402;2023-03-01T13:18:27;8.10;99.90
12015;DHT22;6066;48.138;16.402;2023-03-01T13:20:56;8.30;99.90
12015;DHT22;6066;48.138;16.402;2023-03-01T13:23:25;8.40;99.90
12015;DHT22;6066;48.138;16.402;2023-03-01T13:26:02;8.40;99.90
12015;DHT22;6066;48.138;16.402;2023-03-01T13:28:36;8.40;99.90
12015;DHT22;6066;48.138;16.402;2023-03-01T13:31:06;8.30;99.90
12015;DHT22;6066;48.138;16.402;2023-03-01T13:33:43;8.30;99.90
12015;DHT22;6066;48.138;16.402;2023-03-01T13:36:11;8.30;99.90
12015;DHT22;6066;48.138;16.402;2023-03-01T13:38:59;8.20;99.90
12015;DHT22;6066;48.138;16.402;2023-03-01T13:44:11;8.00;99.90
12015;DHT22;6066;48.138;16.402;2023-03-01T13:46:39;8.00;99.90
12015;DHT22;6066;48.138;16.402;2023-03-01T13:49:09;8.00;99.90
12015;DHT22;6066;48.138;16.402;2023-03-01T13:51:39;8.00;99.90
12015;DHT22;6066;48.138;16.402;2023-03-01T13:54:09;8.10;99.90
12015;DHT22;6066;48.138;16.402;2023-03-01T13:56:37;8.10;99.90
12015;DHT22;6066;48.138;16.402;2023-03-01T13:59:05;8.10;99.90
12015;DHT22;6066;48.138;16.402;2023-03-01T14:01:33;8.10;99.90
12015;DHT22;6066;48.138;16.402;2023-03-01T14:04:01;8.00;99.90
12015;DHT22;6066;48.138;16.402;2023-03-01T14:06:28;8.00;99.90
12015;DHT22;6066;48.138;16.402;2023-03-01T14:09:04;7.90;99.90
12015;DHT22;6066;48.138;16.402;2023-03-01T14:11:35;8.00;99.90
12015;DHT22;6066;48.138;16.402;2023-03-01T14:14:10;8.00;99.90
12015;DHT22;6066;48.138;16.402;2023-03-01T14:16:40;7.90;99.90
12015;DHT22;6066;48.138;16.402;2023-03-01T14:19:13;7.90;99.90
12015;DHT22;6066;48.138;16.402;2023-03-01T14:21:41;7.80;99.90
12015;DHT22;6066;48.138;16.402;2023-03-01T14:24:16;7.70;99.90
12015;DHT22;6066;48.138;16.402;2023-03-01T14:26:43;7.70;99.90
12015;DHT22;6066;48.138;16.402;2023-03-01T14:29:23;7.60;99.90
12015;DHT22;6066;48.138;16.402;2023-03-01T14:31:49;7.60;99.90
12015;DHT22;6066;48.138;16.402;2023-03-01T14:34:18;7.50;99.90
12015;DHT22;6066;48.138;16.402;2023-03-01T14:36:45;7.40;99.90
12015;DHT22;6066;48.138;16.402;2023-03-01T14:39:17;7.40;99.90
12015;DHT22;6066;48.138;16.402;2023-03-01T14:41:44;7.40;99.90
12015;DHT22;6066;48.138;16.402;2023-03-01T14:44:12;7.30;99.90
12015;DHT22;6066;48.138;16.402;2023-03-01T14:46:41;7.30;99.90
12015;DHT22;6066;48.138;16.402;2023-03-01T14:49:10;7.20;99.90
12015;DHT22;6066;48.138;16.402;2023-03-01T14:51:37;7.20;99.90
12015;DHT22;6066;48.138;16.402;2023-03-01T14:54:10;7.20;99.90
12015;DHT22;6066;48.138;16.402;2023-03-01T14:56:45;7.20;99.90
12015;DHT22;6066;48.138;16.402;2023-03-01T14:59:12;7.20;99.90
12015;DHT22;6066;48.138;16.402;2023-03-01T15:01:39;7.20;99.90
12015;DHT22;6066;48.138;16.402;2023-03-01T15:04:07;7.20;99.90
12015;DHT22;6066;48.138;16.402;2023-03-01T15:06:35;7.20;99.90
12015;DHT22;6066;48.138;16.402;2023-03-01T15:09:02;7.20;99.90
12015;DHT22;6066;48.138;16.402;2023-03-01T15:11:30;7.20;99.90
12015;DHT22;6066;48.138;16.402;2023-03-01T15:13:58;7.20;99.90
12015;DHT22;6066;48.138;16.402;2023-03-01T15:16:26;7.20;99.90
12015;DHT22;6066;48.138;16.402;2023-03-01T15:18:53;7.20;99.90
12015;DHT22;6066;48.138;16.402;2023-03-01T15:21:21;7.20;99.90
12015;DHT22;6066;48.138;16.402;2023-03-01T15:23:50;7.10;99.90
12015;DHT22;6066;48.138;16.402;2023-03-01T15:26:22;7.20;99.90
12015;DHT22;6066;48.138;16.402;2023-03-01T15:28:50;7.10;99.90
12015;DHT22;6066;48.138;16.402;2023-03-01T15:31:19;7.00;99.90
12015;DHT22;6066;48.138;16.402;2023-03-01T15:33:47;7.00;99.90
12015;DHT22;6066;48.138;16.402;2023-03-01T15:36:29;7.00;99.90
12015;DHT22;6066;48.138;16.402;2023-03-01T15:38:57;7.00;99.90
12015;DHT22;6066;48.138;16.402;2023-03-01T15:41:26;6.90;99.90
12015;DHT22;6066;48.138;16.402;2023-03-01T15:43:53;6.90;99.90
12015;DHT22;6066;48.138;16.402;2023-03-01T15:46:31;6.90;99.90
12015;DHT22;6066;48.138;16.402;2023-03-01T15:48:59;6.80;99.90
12015;DHT22;6066;48.138;16.402;2023-03-01T15:51:28;6.80;99.90
12015;DHT22;6066;48.138;16.402;2023-03-01T15:53:56;6.80;99.90
12015;DHT22;6066;48.138;16.402;2023-03-01T15:56:24;6.80;99.90
12015;DHT22;6066;48.138;16.402;2023-03-01T15:58:51;6.70;99.90
12015;DHT22;6066;48.138;16.402;2023-03-01T16:01:18;6.70;99.90
12015;DHT22;6066;48.138;16.402;2023-03-01T16:03:46;6.70;99.90